Central Oregon RPC :: BURNEY, CA B

liberation: 2020-06-20  06:30     latitude: 40.876335     longitude: -121.674533 96 birds
# LOFT PRING MILES ARRIVAL SPEED ToWin
1 ROCKY TOP AU19-CORP-4435 234.737 2020-06-20 11:13:29.125 1457.350 00:00:00
2 ROCKY TOP AU19-CORP-4473 234.737 2020-06-20 11:13:30.414 1457.240 00:00:01
3 ROCKY TOP AU19-CORP-4464 234.737 2020-06-20 11:13:31.048 1457.185 00:00:02
4 ROCKY TOP AU19-JEDD-0505 234.737 2020-06-20 11:13:31.877 1457.114 00:00:03
5 ROCKY TOP AU19-JEDD-0507 234.737 2020-06-20 11:13:32.278 1457.080 00:00:03
6 ROCKY TOP AU18-CORP-3351 234.737 2020-06-20 11:13:32.894 1457.027 00:00:04
7 ROCKY TOP AU19-CORP-4490 234.737 2020-06-20 11:13:36.713 1456.700 00:00:08
8 ROCKY TOP AU18-CORP-3349 234.737 2020-06-20 11:13:42.785 1456.181 00:00:14
9 ROCKY TOP AU18-CORP-3313 234.737 2020-06-20 11:15:08.885 1448.852 00:01:40
10 ROCKY TOP AU18-CORP-3371 234.737 2020-06-20 11:15:10.031 1448.755 00:01:41
11 ROCKY TOP AU18-CORP-3310 234.737 2020-06-20 11:15:13.720 1448.443 00:01:45
12 RUETER FAMILY LOFT AU18-CORP-2643 270.644 2020-06-20 12:01:21.815 1437.497 00:04:31
13 RUETER FAMILY LOFT AU17-CORP-0513 270.644 2020-06-20 12:01:23.151 1437.401 00:04:32
14 RUETER FAMILY LOFT AU19-CORP-5438 270.644 2020-06-20 12:01:30.953 1436.837 00:04:40
15 RUETER FAMILY LOFT AU19-CORP-5455 270.644 2020-06-20 12:01:45.030 1435.821 00:04:54
16 RUETER FAMILY LOFT AU17-CORP-0589 270.644 2020-06-20 12:02:10.048 1434.018 00:05:19
17 ROCKY TOP AU19-CORP-4454 234.737 2020-06-20 11:18:37.535 1431.396 00:05:08
18 RUETER FAMILY LOFT AU19-CORP-5358 270.644 2020-06-20 12:02:54.153 1430.852 00:06:03
19 RUETER FAMILY LOFT AU19-CORP-5330 270.644 2020-06-20 12:02:58.557 1430.536 00:06:08
20 RUETER FAMILY LOFT AU19-CORP-5367 270.644 2020-06-20 12:02:58.928 1430.510 00:06:08
21 STEELE LOFT AU19-CORP-4006 239.102 2020-06-20 11:27:24.442 1414.960 00:08:39
22 ROCKY TOP AU19-CORP-4477 234.737 2020-06-20 11:21:59.557 1414.890 00:08:30
23 RUETER FAMILY LOFT AU18-CORP-2744 270.644 2020-06-20 12:06:52.906 1413.951 00:10:02
24 TIM GRAVES AU17-CORP-2034 234.912 2020-06-20 11:23:50.075 1407.066 00:10:08
25 TIM GRAVES AU17-FOYS-3050 234.912 2020-06-20 11:24:03.016 1406.034 00:10:21
26 TIM GRAVES AU16-FHI-0243 234.912 2020-06-20 11:24:06.092 1405.789 00:10:24
27 HENDRICKSON FAMILY LOFT AU18-CORP-4006 242.668 2020-06-20 11:34:14.922 1403.774 00:11:11
28 RUETER FAMILY LOFT AU19-CORP-5344 270.644 2020-06-20 12:09:41.132 1402.280 00:12:50
29 AMERICAN LOFT AU19-CORP-4647 242.578 2020-06-20 11:34:31.861 1401.952 00:11:35
30 RUETER FAMILY LOFT AU17-CORP-0521 270.644 2020-06-20 12:11:00.945 1396.810 00:14:10
31 RUETER FAMILY LOFT AU19-CORP-5331 270.644 2020-06-20 12:11:02.804 1396.683 00:14:12
32 RUETER FAMILY LOFT AU19-CORP-5377 270.644 2020-06-20 12:11:04.393 1396.575 00:14:13
33 RUETER FAMILY LOFT AU18-CORP-2726 270.644 2020-06-20 12:11:06.339 1396.442 00:14:15
34 AMERICAN LOFT AU19-CORP-4711 242.578 2020-06-20 11:36:25.227 1393.307 00:13:28
35 RUETER FAMILY LOFT AU19-CORP-5432 270.644 2020-06-20 12:12:34.547 1390.449 00:15:44
36 AMERICAN LOFT AU19-CORP-4751 242.578 2020-06-20 11:37:58.659 1386.262 00:15:01
37 RUETER FAMILY LOFT AU17-CORP-0449 270.644 2020-06-20 12:13:38.502 1386.136 00:16:48
38 STEELE LOFT AU19-CORP-4007 239.102 2020-06-20 11:33:38.828 1385.884 00:14:53
39 RUETER FAMILY LOFT AU19-CORP-5339 270.644 2020-06-20 12:13:42.378 1385.876 00:16:51
40 RUETER FAMILY LOFT AU18-CORP-2728 270.644 2020-06-20 12:13:54.361 1385.071 00:17:03
41 STEELE LOFT AU19-CORP-4009 239.102 2020-06-20 11:34:00.421 1384.243 00:15:15
42 ROCKY TOP AU19-ARPU-29012 234.737 2020-06-20 11:29:05.963 1381.272 00:15:37
43 TIM GRAVES AU16-AUB-0602 234.912 2020-06-20 11:29:19.909 1381.226 00:15:38
44 TIM GRAVES AU17-CORP-0812 234.912 2020-06-20 11:29:22.145 1381.054 00:15:40
45 HENDRICKSON FAMILY LOFT AU18-CORP-4028 242.668 2020-06-20 11:40:47.628 1374.212 00:17:44
46 RUETER FAMILY LOFT AU19-CORP-5435 270.644 2020-06-20 12:18:00.457 1368.747 00:21:09
47 TIM GRAVES AU17-SWWR-7335 234.912 2020-06-20 11:32:06.354 1368.542 00:18:25
48 RUETER FAMILY LOFT AU19-CORP-5447 270.644 2020-06-20 12:18:27.490 1366.977 00:21:37
49 RUETER FAMILY LOFT AU19-CORP-5376 270.644 2020-06-20 12:23:47.458 1346.372 00:26:56
50 STEELE LOFT AU19-CORP-4004 239.102 2020-06-20 11:44:04.444 1339.874 00:25:19
51 RUETER FAMILY LOFT AU19-CORP-5463 270.644 2020-06-20 12:29:41.268 1324.299 00:32:50
52 AMERICAN LOFT AU19-CORP-4746 242.578 2020-06-20 11:53:32.221 1319.595 00:30:35
53 RUETER FAMILY LOFT AU18-CORP-2635 270.644 2020-06-20 12:33:25.280 1310.694 00:36:34
54 RUETER FAMILY LOFT AU18-CORP-2777 270.644 2020-06-20 12:33:27.460 1310.563 00:36:36
55 TOPIGEONUSA AU18-CORP-4272 239.208 2020-06-20 11:52:14.723 1306.477 00:33:22
56 AMERICAN LOFT AU19-CORP-4769 242.578 2020-06-20 11:57:33.544 1303.392 00:34:36
57 TOPIGEONUSA AU19-CORP-4908 239.208 2020-06-20 11:53:01.499 1303.324 00:34:08
58 RUETER FAMILY LOFT AU19-CORP-5425 270.644 2020-06-20 12:38:55.741 1291.127 00:42:05
59 RUETER FAMILY LOFT AU17-CORP-0425 270.644 2020-06-20 12:39:07.461 1290.444 00:42:16
60 RUETER FAMILY LOFT AU18-CORP-2626 270.644 2020-06-20 12:40:04.677 1287.119 00:43:14
61 TOPIGEONUSA AU19-CORP-5124 239.208 2020-06-20 11:57:18.218 1286.286 00:38:25
62 RUETER FAMILY LOFT AU19-CORP-5351 270.644 2020-06-20 12:41:33.684 1281.980 00:44:43
63 AMERICAN LOFT AU19-CORP-4673 242.578 2020-06-20 12:08:20.084 1261.880 00:45:23
64 ROCKY TOP AU19-CORP-4400 234.737 2020-06-20 12:05:01.806 1233.135 00:51:33
65 ROCKY TOP AU17-CORP-0798 234.737 2020-06-20 12:06:21.929 1228.240 00:52:53
66 TIM GRAVES AU19-CORP-4239 234.912 2020-06-20 12:10:58.071 1212.562 00:57:16
67 RUETER FAMILY LOFT AU19-CORP-5335 270.644 2020-06-20 13:04:25.680 1207.658 01:07:35
68 RUETER FAMILY LOFT AU19-CORP-5413 270.644 2020-06-20 13:04:57.022 1206.061 01:08:06
69 RUETER FAMILY LOFT AU18-CORP-2774 270.644 2020-06-20 13:07:32.353 1198.207 01:10:41
70 AMERICAN LOFT AU19-CORP-4681 242.578 2020-06-20 12:26:24.453 1197.892 01:03:27
71 AMERICAN LOFT AU19-CORP-4741 242.578 2020-06-20 12:33:38.151 1174.080 01:10:41
72 TIM GRAVES AU17-FHI-0202 234.912 2020-06-20 12:26:08.774 1160.885 01:12:27
73 TOPIGEONUSA AU19-CORP-4912 239.208 2020-06-20 12:32:45.349 1160.577 01:13:52
74 RUETER FAMILY LOFT AU18-CORP-2684 270.644 2020-06-20 13:24:39.910 1148.720 01:27:49
75 TIM GRAVES AU16-CORP-6702 234.912 2020-06-20 12:36:18.297 1128.690 01:22:37
76 AMERICAN LOFT AU18-CORP-2549 242.578 2020-06-20 12:49:29.958 1125.003 01:26:33
77 HENDRICKSON FAMILY LOFT AU19-CORP-4360 242.668 2020-06-20 13:00:38.461 1093.322 01:37:35
78 RUETER FAMILY LOFT AU18-CORP-2696 270.644 2020-06-20 14:03:41.835 1049.894 02:06:51
79 RUETER FAMILY LOFT AU18-CORP-2651 270.644 2020-06-20 14:03:42.852 1049.855 02:06:52
80 RUETER FAMILY LOFT AU19-CORP-5310 270.644 2020-06-20 14:21:33.523 1010.127 02:24:43
81 HENDRICKSON FAMILY LOFT AU19-ARPU-29030 242.668 2020-06-20 14:06:13.984 936.137 02:43:10
82 RUETER FAMILY LOFT AU19-CORP-5453 270.644 2020-06-20 15:49:00.189 852.114 03:52:09
83 AMERICAN LOFT AU19-CORP-4726 242.578 2020-06-20 15:33:31.168 785.506 04:10:34
84 HENDRICKSON FAMILY LOFT AU19-CORP-4359 242.668 2020-06-20 15:52:04.036 759.867 04:29:00
85 RUETER FAMILY LOFT AU19-CORP-5296 270.644 2020-06-20 19:00:15.847 634.889 07:03:25
86 RUETER FAMILY LOFT AU19-CORP-5458 270.644 2020-06-21 06:06:44.256 504.937 10:16:30
87 TOPIGEONUSA AU18-CORP-4205 239.208 2020-06-20 20:44:47.773 492.522 09:25:55
88 TOPIGEONUSA AU19-CORP-4956 239.208 2020-06-21 06:40:29.912 430.866 11:28:14
AMERICAN LOFT AU19-CORP-4602 0 0000-00-00 00:00:00.000 0.000 00:00:00
AMERICAN LOFT AU19-CORP-4650 0 0000-00-00 00:00:00.000 0.000 00:00:00
AMERICAN LOFT AU19-CORP-4713 0 0000-00-00 00:00:00.000 0.000 00:00:00
RUETER FAMILY LOFT AU18-CORP-2721 0 0000-00-00 00:00:00.000 0.000 00:00:00
RUETER FAMILY LOFT AU19-CORP-5393 0 0000-00-00 00:00:00.000 0.000 00:00:00
TIM GRAVES AU13-TCW-3849 0 0000-00-00 00:00:00.000 0.000 00:00:00
TIM GRAVES AU14-CORP-1963 0 0000-00-00 00:00:00.000 0.000 00:00:00
TOPIGEONUSA AU19-CORP-5136 0 0000-00-00 00:00:00.000 0.000 00:00:00